Historyczne dane pomiarowe

Dodano dane terminowe – wersja testowa.

Dane z okresu 1951-2019

Wersja bazy: 1.34 [2019-03-16, lista zmian], aktualizacja planowana na 2019-04-15

Dane meteo z obszaru Polski uzyskane na podstawie danych udostępnionych przez Instytut Meteorologii i Gospodarki Wodnej – Państwowy Instytut Badawczy.

 

Wybierz Datę:    

       

TemperaturaWilgotnośćWiatrCiśnienieOpadyŚniegCzas trwania zjawisk
 Stacja t tx tn tng RH VA  wxwx mslp ppp RRR   cm mm wxwxwxwxwxwxwx
1969-01-17 1.0 1.9 0.2- 92.0- 6.0 3.3---- 0.0------------
1969-01-18 1.9 2.5 0.6- 88.5- 6.0 7.0---- 3.4------------
1969-01-19 -3.1 1.8 -3.9- 87.0- 6.0 7.3---- 1.3-- 1---------
1969-01-20-10.9 -3.6-13.2- 71.3- 3.0 7.3---- 0.0-- 2---------
1969-01-21-11.3 -8.4-15.6- 70.5- 0.3 5.7---- 0.0-- 2---------
1969-01-22 -6.2 -4.5-12.7- 72.3- 6.0 7.3---- 4.9-- 2---------
1969-01-23 0.2 2.3 -7.2- 96.0- 6.0 4.3---- 0.6-- 2---------
1969-01-24 -0.9 0.0 -1.8- 85.3- 6.0 6.3---- 0.8-- 3---------
1969-01-25 -3.7 -1.1 -4.7- 83.8- 5.7 2.0---- 0.0-- 3---------
1969-01-26 -5.0 -3.2 -6.0- 85.3- 5.3 1.7---- 0.0-- 3---------
1969-01-27 -5.1 -2.0 -7.2- 80.5- 4.3 6.7---- 0.0-- 3---------
1969-01-28 -4.1 -1.3-10.3- 88.8- 6.0 3.0---- 0.0-- 3---------
1969-01-29 0.9 1.4 -1.7- 90.3- 5.3 5.0---- 0.2-- 3---------
1969-01-30 1.1 1.9 0.3- 91.8- 5.3 2.7---- 0.4------------
1969-01-31 1.9 3.7 0.7- 88.5- 5.3 5.0---- 0.9------------
1969-02-01 0.9 3.0 -0.3- 75.0- 1.7 5.3---- 0.0------------
1969-02-02 1.6 3.4 -1.8- 89.5- 5.3 3.7---- 1.3------------
1969-02-03 0.5 2.2 -0.4- 88.5- 4.7 4.0---- 2.4------------
1969-02-04 -1.2 0.7 -2.5- 92.8- 6.0 5.3---- 0.7-- 3---------
1969-02-05 -7.0 -0.1-11.8- 83.5- 3.0 2.0---- 0.0-- 4---------
1969-02-06 -9.0 -3.2-14.4- 76.3- 0.0 0.0---- 0.0-- 4---------
1969-02-07 -3.8 -1.8-10.8- 84.5- 4.7 8.7---- 0.0-- 4---------
1969-02-08 -2.4 -0.9 -4.8- 86.5- 6.0 7.3---- 3.2-- 4---------
1969-02-09 -6.4 -0.7 -7.7- 80.8- 6.0 3.7---- 2.0-- 6---------
1969-02-10-10.7 -7.3-11.2- 79.0- 6.0 4.3---- 2.8-- 8---------
1969-02-11 -9.5 -7.9-12.2- 76.0- 6.0 2.0---- 3.4-- 10---------
1969-02-12-16.8 -9.0-20.7- 73.5- 3.0 3.0---- 0.0-- 13---------
1969-02-13-19.7-13.2-27.6- 73.5- 0.3 1.3---- 0.0-- 13---------
1969-02-14-15.6-10.8-22.8- 76.5- 4.0 1.3---- 1.8-- 13---------
1969-02-15 -9.4 -3.0-25.2- 83.8- 4.0 4.7---- 0.8-- 14---------
215.3 ms

 

Źródłem pochodzenia danych jest Instytut Meteorologii i Gospodarki Wodnej – Państwowy Instytut Badawczy. Dane Instytutu Meteorologii i Gospodarki Wodnej – Państwowego Instytutu Badawczego zostały przetworzone.

Dane źródłowe można odnaleźć na stronie https://dane.imgw.pl